sensor_id;sensor_type;location;lat;lon;timestamp;pressure;altitude;pressure_sealevel;temperature;humidity
74975;BME280;68459;50.836;19.138;2024-03-23T00:55:44;97966.72;;;9.49;63.60
74975;BME280;68459;50.836;19.138;2024-03-23T00:58:45;97964.50;;;9.46;64.13
74975;BME280;68459;50.836;19.138;2024-03-23T01:01:48;97965.22;;;9.41;64.81
74975;BME280;68459;50.836;19.138;2024-03-23T01:04:50;97964.03;;;9.37;64.64
74975;BME280;68459;50.836;19.138;2024-03-23T01:07:53;97954.31;;;9.36;64.93
74975;BME280;68459;50.836;19.138;2024-03-23T01:10:55;97956.66;;;9.33;64.92
74975;BME280;68459;50.836;19.138;2024-03-23T01:13:58;97951.28;;;9.33;65.43
74975;BME280;68459;50.836;19.138;2024-03-23T01:17:00;97951.75;;;9.29;65.00
74975;BME280;68459;50.836;19.138;2024-03-23T01:20:03;97939.00;;;9.25;65.22
74975;BME280;68459;50.836;19.138;2024-03-23T01:23:09;97937.59;;;9.22;65.15
74975;BME280;68459;50.836;19.138;2024-03-23T01:26:11;97934.88;;;9.22;66.12
74975;BME280;68459;50.836;19.138;2024-03-23T01:29:13;97934.31;;;9.20;65.87
74975;BME280;68459;50.836;19.138;2024-03-23T01:32:16;97932.56;;;9.14;66.06
74975;BME280;68459;50.836;19.138;2024-03-23T01:35:18;97930.56;;;9.10;65.92
74975;BME280;68459;50.836;19.138;2024-03-23T01:38:22;97922.72;;;9.08;66.54
74975;BME280;68459;50.836;19.138;2024-03-23T01:41:24;97923.53;;;9.09;66.66
74975;BME280;68459;50.836;19.138;2024-03-23T01:44:27;97929.28;;;9.12;67.17
74975;BME280;68459;50.836;19.138;2024-03-23T01:47:29;97922.25;;;9.11;67.16
74975;BME280;68459;50.836;19.138;2024-03-23T01:50:32;97925.41;;;9.08;66.73
74975;BME280;68459;50.836;19.138;2024-03-23T01:53:36;97931.59;;;9.09;67.42
74975;BME280;68459;50.836;19.138;2024-03-23T01:56:39;97931.81;;;9.07;67.76
74975;BME280;68459;50.836;19.138;2024-03-23T01:59:41;97929.72;;;9.09;67.58
74975;BME280;68459;50.836;19.138;2024-03-23T02:02:45;97931.81;;;9.07;67.75
74975;BME280;68459;50.836;19.138;2024-03-23T02:05:48;97929.84;;;9.03;67.71
74975;BME280;68459;50.836;19.138;2024-03-23T02:08:51;97920.81;;;8.97;68.59
74975;BME280;68459;50.836;19.138;2024-03-23T02:11:54;97918.81;;;8.92;68.26
74975;BME280;68459;50.836;19.138;2024-03-23T02:14:56;97921.50;;;8.92;67.93
74975;BME280;68459;50.836;19.138;2024-03-23T02:17:59;97911.69;;;8.86;68.36
74975;BME280;68459;50.836;19.138;2024-03-23T02:21:01;97904.31;;;8.82;68.82
74975;BME280;68459;50.836;19.138;2024-03-23T02:24:06;97905.34;;;8.81;69.10
74975;BME280;68459;50.836;19.138;2024-03-23T02:27:08;97905.94;;;8.83;68.80
74975;BME280;68459;50.836;19.138;2024-03-23T02:30:11;97897.28;;;8.81;68.98
74975;BME280;68459;50.836;19.138;2024-03-23T02:33:13;97895.91;;;8.78;69.65
74975;BME280;68459;50.836;19.138;2024-03-23T02:36:16;97884.34;;;8.78;69.37
74975;BME280;68459;50.836;19.138;2024-03-23T02:39:20;97881.88;;;8.76;69.56
74975;BME280;68459;50.836;19.138;2024-03-23T02:42:22;97876.72;;;8.75;69.90
74975;BME280;68459;50.836;19.138;2024-03-23T02:45:25;97870.75;;;8.73;70.17
74975;BME280;68459;50.836;19.138;2024-03-23T02:48:27;97860.44;;;8.70;69.81
74975;BME280;68459;50.836;19.138;2024-03-23T02:51:30;97850.97;;;8.67;70.23
74975;BME280;68459;50.836;19.138;2024-03-23T02:54:33;97846.66;;;8.66;70.68
74975;BME280;68459;50.836;19.138;2024-03-23T02:57:35;97841.97;;;8.62;70.54
74975;BME280;68459;50.836;19.138;2024-03-23T03:00:38;97839.53;;;8.60;70.15
74975;BME280;68459;50.836;19.138;2024-03-23T03:03:40;97833.31;;;8.60;70.94
74975;BME280;68459;50.836;19.138;2024-03-23T03:06:46;97817.19;;;8.60;70.92
74975;BME280;68459;50.836;19.138;2024-03-23T03:09:50;97822.56;;;8.60;70.54
74975;BME280;68459;50.836;19.138;2024-03-23T03:12:53;97813.91;;;8.57;70.71
74975;BME280;68459;50.836;19.138;2024-03-23T03:15:55;97814.75;;;8.58;70.72
74975;BME280;68459;50.836;19.138;2024-03-23T03:18:59;97805.63;;;8.59;70.93
74975;BME280;68459;50.836;19.138;2024-03-23T03:22:01;97795.69;;;8.60;71.40
74975;BME280;68459;50.836;19.138;2024-03-23T03:25:07;97795.47;;;8.61;71.17
74975;BME280;68459;50.836;19.138;2024-03-23T03:28:09;97791.97;;;8.61;71.28
74975;BME280;68459;50.836;19.138;2024-03-23T03:31:11;97795.47;;;8.61;71.53
74975;BME280;68459;50.836;19.138;2024-03-23T03:34:14;97787.63;;;8.60;71.14
74975;BME280;68459;50.836;19.138;2024-03-23T03:37:16;97774.44;;;8.58;71.27
74975;BME280;68459;50.836;19.138;2024-03-23T03:40:20;97769.06;;;8.58;71.55
74975;BME280;68459;50.836;19.138;2024-03-23T03:43:22;97768.22;;;8.57;71.54
74975;BME280;68459;50.836;19.138;2024-03-23T03:46:24;97761.22;;;8.56;72.16
74975;BME280;68459;50.836;19.138;2024-03-23T03:49:26;97758.53;;;8.56;71.51
74975;BME280;68459;50.836;19.138;2024-03-23T03:52:29;97755.84;;;8.56;71.74
74975;BME280;68459;50.836;19.138;2024-03-23T03:55:32;97758.16;;;8.53;71.86
74975;BME280;68459;50.836;19.138;2024-03-23T03:58:35;97761.34;;;8.50;71.67
74975;BME280;68459;50.836;19.138;2024-03-23T04:01:37;97762.63;;;8.47;72.37
74975;BME280;68459;50.836;19.138;2024-03-23T04:04:39;97751.88;;;8.47;71.95
74975;BME280;68459;50.836;19.138;2024-03-23T04:07:42;97766.34;;;8.46;72.02
74975;BME280;68459;50.836;19.138;2024-03-23T04:10:46;97753.97;;;8.45;73.22
74975;BME280;68459;50.836;19.138;2024-03-23T04:13:48;97751.28;;;8.45;72.21
74975;BME280;68459;50.836;19.138;2024-03-23T04:16:51;97757.69;;;8.44;72.48
74975;BME280;68459;50.836;19.138;2024-03-23T04:19:55;97748.81;;;8.44;72.82
74975;BME280;68459;50.836;19.138;2024-03-23T04:22:58;97751.28;;;8.45;72.65
74975;BME280;68459;50.836;19.138;2024-03-23T04:26:05;97752.56;;;8.43;73.07
74975;BME280;68459;50.836;19.138;2024-03-23T04:29:07;97747.19;;;8.43;72.68
74975;BME280;68459;50.836;19.138;2024-03-23T04:32:10;97746.81;;;8.39;72.97
74975;BME280;68459;50.836;19.138;2024-03-23T04:35:12;97737.59;;;8.35;72.71
74975;BME280;68459;50.836;19.138;2024-03-23T04:38:14;97732.06;;;8.30;72.85
74975;BME280;68459;50.836;19.138;2024-03-23T04:41:19;97733.34;;;8.28;73.13
74975;BME280;68459;50.836;19.138;2024-03-23T04:44:21;97728.78;;;8.28;72.64
74975;BME280;68459;50.836;19.138;2024-03-23T04:47:24;97720.50;;;8.30;72.69
74975;BME280;68459;50.836;19.138;2024-03-23T04:50:27;97713.06;;;8.32;73.24
74975;BME280;68459;50.836;19.138;2024-03-23T04:53:30;97698.19;;;8.29;72.58
74975;BME280;68459;50.836;19.138;2024-03-23T04:56:34;97690.88;;;8.36;73.25
74975;BME280;68459;50.836;19.138;2024-03-23T04:59:38;97679.09;;;8.37;72.85
74975;BME280;68459;50.836;19.138;2024-03-23T05:02:39;97689.03;;;8.37;73.23
74975;BME280;68459;50.836;19.138;2024-03-23T05:05:42;97682.00;;;8.36;73.03
74975;BME280;68459;50.836;19.138;2024-03-23T05:08:44;97684.91;;;8.34;73.26
74975;BME280;68459;50.836;19.138;2024-03-23T05:11:48;97685.75;;;8.35;73.13
74975;BME280;68459;50.836;19.138;2024-03-23T05:14:50;97679.56;;;8.34;73.57
74975;BME280;68459;50.836;19.138;2024-03-23T05:17:53;97677.44;;;8.36;72.97
74975;BME280;68459;50.836;19.138;2024-03-23T05:20:56;97669.16;;;8.38;73.17
74975;BME280;68459;50.836;19.138;2024-03-23T05:23:58;97672.41;;;8.40;73.19
74975;BME280;68459;50.836;19.138;2024-03-23T05:27:03;97664.47;;;8.45;73.22
74975;BME280;68459;50.836;19.138;2024-03-23T05:30:06;97658.41;;;8.49;73.13
74975;BME280;68459;50.836;19.138;2024-03-23T05:33:10;97645.78;;;8.50;73.09
74975;BME280;68459;50.836;19.138;2024-03-23T05:36:11;97641.78;;;8.52;73.26
74975;BME280;68459;50.836;19.138;2024-03-23T05:39:14;97648.81;;;8.53;73.03
74975;BME280;68459;50.836;19.138;2024-03-23T05:42:19;97664.09;;;8.53;73.38
74975;BME280;68459;50.836;19.138;2024-03-23T05:45:21;97670.88;;;8.55;73.23
74975;BME280;68459;50.836;19.138;2024-03-23T05:48:24;97673.56;;;8.55;73.29
74975;BME280;68459;50.836;19.138;2024-03-23T05:51:27;97663.41;;;8.57;73.25
74975;BME280;68459;50.836;19.138;2024-03-23T05:54:29;97666.81;;;8.65;73.04
74975;BME280;68459;50.836;19.138;2024-03-23T05:57:33;97671.47;;;8.69;73.22
74975;BME280;68459;50.836;19.138;2024-03-23T06:00:35;97670.19;;;8.72;73.00
74975;BME280;68459;50.836;19.138;2024-03-23T06:03:37;97667.03;;;8.75;73.33
74975;BME280;68459;50.836;19.138;2024-03-23T06:06:39;97652.53;;;8.76;72.65
74975;BME280;68459;50.836;19.138;2024-03-23T06:09:42;97658.72;;;8.76;72.66
74975;BME280;68459;50.836;19.138;2024-03-23T06:12:47;97664.09;;;8.76;72.38
74975;BME280;68459;50.836;19.138;2024-03-23T06:15:50;97657.41;;;8.79;73.33
74975;BME280;68459;50.836;19.138;2024-03-23T06:18:53;97653.09;;;8.89;72.79
74975;BME280;68459;50.836;19.138;2024-03-23T06:21:55;97649.19;;;8.97;73.25
74975;BME280;68459;50.836;19.138;2024-03-23T06:24:58;97649.41;;;9.07;72.48
74975;BME280;68459;50.836;19.138;2024-03-23T06:28:01;97620.50;;;9.14;73.00
74975;BME280;68459;50.836;19.138;2024-03-23T06:31:08;97596.81;;;9.28;72.66
74975;BME280;68459;50.836;19.138;2024-03-23T06:34:10;97591.94;;;9.42;72.53
74975;BME280;68459;50.836;19.138;2024-03-23T06:37:13;97565.31;;;9.57;72.11
74975;BME280;68459;50.836;19.138;2024-03-23T06:40:14;97553.31;;;9.64;71.82
74975;BME280;68459;50.836;19.138;2024-03-23T06:43:19;97557.44;;;9.72;72.00
74975;BME280;68459;50.836;19.138;2024-03-23T06:46:20;97566.78;;;9.81;72.08
74975;BME280;68459;50.836;19.138;2024-03-23T06:49:23;97577.34;;;9.88;71.89
74975;BME280;68459;50.836;19.138;2024-03-23T06:52:25;97582.25;;;9.91;71.36
74975;BME280;68459;50.836;19.138;2024-03-23T06:55:28;97595.00;;;9.95;71.47
74975;BME280;68459;50.836;19.138;2024-03-23T06:58:31;97591.41;;;10.07;71.44
74975;BME280;68459;50.836;19.138;2024-03-23T07:01:34;97585.81;;;10.13;71.36
74975;BME280;68459;50.836;19.138;2024-03-23T07:04:36;97596.47;;;10.20;71.02
74975;BME280;68459;50.836;19.138;2024-03-23T07:07:40;97583.63;;;10.27;71.28
74975;BME280;68459;50.836;19.138;2024-03-23T07:10:43;97589.91;;;10.32;71.17
74975;BME280;68459;50.836;19.138;2024-03-23T07:13:49;97586.16;;;10.33;71.56
74975;BME280;68459;50.836;19.138;2024-03-23T07:16:52;97582.09;;;10.31;70.44
74975;BME280;68459;50.836;19.138;2024-03-23T07:19:54;97583.63;;;10.27;71.02
74975;BME280;68459;50.836;19.138;2024-03-23T07:22:57;97586.28;;;10.22;70.40
74975;BME280;68459;50.836;19.138;2024-03-23T07:25:59;97585.09;;;10.18;70.86
74975;BME280;68459;50.836;19.138;2024-03-23T07:29:03;97588.84;;;10.17;71.41
74975;BME280;68459;50.836;19.138;2024-03-23T07:32:06;97582.41;;;10.18;70.63
74975;BME280;68459;50.836;19.138;2024-03-23T07:35:08;97574.91;;;10.20;70.99
74975;BME280;68459;50.836;19.138;2024-03-23T07:38:11;97573.91;;;10.26;71.13
74975;BME280;68459;50.836;19.138;2024-03-23T07:41:15;97577.63;;;10.42;71.54
74975;BME280;68459;50.836;19.138;2024-03-23T07:44:20;97571.50;;;10.68;70.79
74975;BME280;68459;50.836;19.138;2024-03-23T07:47:22;97565.56;;;10.88;70.92
74975;BME280;68459;50.836;19.138;2024-03-23T07:50:25;97559.47;;;10.97;70.12
74975;BME280;68459;50.836;19.138;2024-03-23T07:53:27;97555.50;;;11.05;69.99
74975;BME280;68459;50.836;19.138;2024-03-23T07:56:30;97541.63;;;11.18;70.20
74975;BME280;68459;50.836;19.138;2024-03-23T07:59:35;97537.22;;;11.39;69.82
74975;BME280;68459;50.836;19.138;2024-03-23T08:02:37;97528.75;;;11.62;70.59
74975;BME280;68459;50.836;19.138;2024-03-23T08:05:39;97517.34;;;11.87;68.45
74975;BME280;68459;50.836;19.138;2024-03-23T08:08:44;97511.31;;;12.12;68.43
74975;BME280;68459;50.836;19.138;2024-03-23T08:11:47;97509.56;;;12.38;68.35
74975;BME280;68459;50.836;19.138;2024-03-23T08:14:51;97514.28;;;12.63;67.48
74975;BME280;68459;50.836;19.138;2024-03-23T08:17:52;97493.75;;;12.77;66.73
74975;BME280;68459;50.836;19.138;2024-03-23T08:20:56;97487.28;;;12.88;66.00
74975;BME280;68459;50.836;19.138;2024-03-23T08:23:58;97484.59;;;12.98;65.31
74975;BME280;68459;50.836;19.138;2024-03-23T08:27:01;97477.31;;;13.09;65.35
74975;BME280;68459;50.836;19.138;2024-03-23T08:30:08;97471.97;;;13.29;64.67
74975;BME280;68459;50.836;19.138;2024-03-23T08:33:10;97483.88;;;13.53;63.38
74975;BME280;68459;50.836;19.138;2024-03-23T08:36:13;97468.44;;;13.64;61.32
74975;BME280;68459;50.836;19.138;2024-03-23T08:39:15;97448.63;;;13.74;62.02
74975;BME280;68459;50.836;19.138;2024-03-23T08:42:18;97430.19;;;13.81;62.05
74975;BME280;68459;50.836;19.138;2024-03-23T08:45:21;97447.78;;;13.88;60.70
74975;BME280;68459;50.836;19.138;2024-03-23T08:48:25;97435.59;;;13.86;61.47
74975;BME280;68459;50.836;19.138;2024-03-23T08:51:27;97429.66;;;13.84;60.97
74975;BME280;68459;50.836;19.138;2024-03-23T08:54:30;97425.03;;;13.79;60.11
74975;BME280;68459;50.836;19.138;2024-03-23T08:57:33;97418.28;;;13.77;60.54
74975;BME280;68459;50.836;19.138;2024-03-23T09:00:36;97409.31;;;13.81;59.88
74975;BME280;68459;50.836;19.138;2024-03-23T09:03:39;97428.81;;;13.88;59.17
74975;BME280;68459;50.836;19.138;2024-03-23T09:06:42;97418.25;;;13.97;59.94
74975;BME280;68459;50.836;19.138;2024-03-23T09:09:45;97412.78;;;14.07;59.18
74975;BME280;68459;50.836;19.138;2024-03-23T09:12:46;97402.97;;;14.16;58.77
74975;BME280;68459;50.836;19.138;2024-03-23T09:15:51;97386.13;;;14.24;58.49
74975;BME280;68459;50.836;19.138;2024-03-23T09:18:57;97380.66;;;14.35;57.25
74975;BME280;68459;50.836;19.138;2024-03-23T09:22:00;97405.88;;;14.40;57.30
74975;BME280;68459;50.836;19.138;2024-03-23T09:25:02;97361.63;;;14.45;57.28
74975;BME280;68459;50.836;19.138;2024-03-23T09:28:07;97365.91;;;14.56;56.79
74975;BME280;68459;50.836;19.138;2024-03-23T09:31:12;97362.09;;;14.62;56.29
74975;BME280;68459;50.836;19.138;2024-03-23T09:34:16;97352.25;;;14.71;56.21
74975;BME280;68459;50.836;19.138;2024-03-23T09:37:18;97347.81;;;14.80;55.91
74975;BME280;68459;50.836;19.138;2024-03-23T09:40:20;97341.22;;;14.91;55.15
74975;BME280;68459;50.836;19.138;2024-03-23T09:43:24;97340.38;;;14.96;54.63
74975;BME280;68459;50.836;19.138;2024-03-23T09:46:27;97339.25;;;15.02;54.42
74975;BME280;68459;50.836;19.138;2024-03-23T09:49:31;97319.06;;;15.13;53.82
74975;BME280;68459;50.836;19.138;2024-03-23T09:52:37;97312.19;;;15.21;53.82
74975;BME280;68459;50.836;19.138;2024-03-23T09:55:41;97309.97;;;15.28;52.20
74975;BME280;68459;50.836;19.138;2024-03-23T09:58:43;97287.59;;;15.36;53.19
74975;BME280;68459;50.836;19.138;2024-03-23T10:01:48;97295.63;;;15.46;51.68
74975;BME280;68459;50.836;19.138;2024-03-23T10:04:51;97290.44;;;15.50;52.26
74975;BME280;68459;50.836;19.138;2024-03-23T10:07:54;97277.00;;;15.63;52.13
74975;BME280;68459;50.836;19.138;2024-03-23T10:10:56;97271.59;;;15.82;51.44
74975;BME280;68459;50.836;19.138;2024-03-23T10:13:58;97272.28;;;15.93;50.59
74975;BME280;68459;50.836;19.138;2024-03-23T10:17:12;97270.59;;;15.97;49.07
74975;BME280;68459;50.836;19.138;2024-03-23T10:20:19;97268.03;;;16.06;50.72
74975;BME280;68459;50.836;19.138;2024-03-23T10:23:22;97260.63;;;16.11;50.05
74975;BME280;68459;50.836;19.138;2024-03-23T10:26:25;97244.72;;;16.18;49.34
74975;BME280;68459;50.836;19.138;2024-03-23T10:29:28;97237.50;;;16.27;49.41
74975;BME280;68459;50.836;19.138;2024-03-23T10:32:31;97239.19;;;16.42;48.81
74975;BME280;68459;50.836;19.138;2024-03-23T10:35:34;97229.06;;;16.48;48.43
74975;BME280;68459;50.836;19.138;2024-03-23T10:38:39;97223.81;;;16.70;48.27
74975;BME280;68459;50.836;19.138;2024-03-23T10:41:43;97220.88;;;17.13;47.80
74975;BME280;68459;50.836;19.138;2024-03-23T10:44:47;97221.41;;;17.42;46.39
74975;BME280;68459;50.836;19.138;2024-03-23T10:47:53;97216.03;;;17.37;46.62
74975;BME280;68459;50.836;19.138;2024-03-23T10:50:55;97202.31;;;17.42;46.49
74975;BME280;68459;50.836;19.138;2024-03-23T10:53:58;97188.56;;;17.47;46.52
74975;BME280;68459;50.836;19.138;2024-03-23T10:57:05;97224.72;;;17.39;45.77
74975;BME280;68459;50.836;19.138;2024-03-23T11:00:11;97206.53;;;17.21;46.65
74975;BME280;68459;50.836;19.138;2024-03-23T11:03:31;97206.50;;;16.93;45.54
74975;BME280;68459;50.836;19.138;2024-03-23T11:06:36;97205.84;;;16.69;47.05
74975;BME280;68459;50.836;19.138;2024-03-23T11:09:40;97169.88;;;16.53;47.29
74975;BME280;68459;50.836;19.138;2024-03-23T11:12:45;97179.53;;;16.46;47.38
74975;BME280;68459;50.836;19.138;2024-03-23T11:15:49;97174.91;;;16.46;47.62
74975;BME280;68459;50.836;19.138;2024-03-23T11:18:51;97154.47;;;16.49;47.80
74975;BME280;68459;50.836;19.138;2024-03-23T11:21:55;97149.94;;;16.58;48.21
74975;BME280;68459;50.836;19.138;2024-03-23T11:24:56;97166.34;;;16.71;47.60
74975;BME280;68459;50.836;19.138;2024-03-23T11:28:10;97133.47;;;16.82;46.29
74975;BME280;68459;50.836;19.138;2024-03-23T11:31:16;97102.59;;;17.14;46.79
74975;BME280;68459;50.836;19.138;2024-03-23T11:34:20;97104.25;;;17.51;46.28
74975;BME280;68459;50.836;19.138;2024-03-23T11:37:22;97082.97;;;17.66;46.33
74975;BME280;68459;50.836;19.138;2024-03-23T11:40:24;97073.78;;;17.85;46.10
74975;BME280;68459;50.836;19.138;2024-03-23T11:43:27;97069.22;;;17.94;45.89
74975;BME280;68459;50.836;19.138;2024-03-23T11:46:30;97056.13;;;18.04;46.21
74975;BME280;68459;50.836;19.138;2024-03-23T11:49:34;97060.59;;;18.23;45.26
74975;BME280;68459;50.836;19.138;2024-03-23T11:52:43;97052.13;;;18.33;45.44
74975;BME280;68459;50.836;19.138;2024-03-23T11:55:47;97041.13;;;18.46;44.55
74975;BME280;68459;50.836;19.138;2024-03-23T11:58:49;97032.38;;;18.58;44.15
74975;BME280;68459;50.836;19.138;2024-03-23T12:01:52;97015.41;;;18.78;43.87
74975;BME280;68459;50.836;19.138;2024-03-23T12:04:56;97014.47;;;18.92;43.55
74975;BME280;68459;50.836;19.138;2024-03-23T12:08:18;96999.91;;;19.22;42.01
74975;BME280;68459;50.836;19.138;2024-03-23T12:11:22;96993.34;;;19.57;42.86
74975;BME280;68459;50.836;19.138;2024-03-23T12:14:27;96983.53;;;19.82;42.32
74975;BME280;68459;50.836;19.138;2024-03-23T12:17:32;96968.06;;;19.86;42.03
74975;BME280;68459;50.836;19.138;2024-03-23T12:20:37;96978.78;;;20.17;41.15
74975;BME280;68459;50.836;19.138;2024-03-23T12:23:40;96959.38;;;20.40;40.67
74975;BME280;68459;50.836;19.138;2024-03-23T12:26:43;96978.59;;;21.49;38.26
74975;BME280;68459;50.836;19.138;2024-03-23T12:29:45;96948.63;;;23.31;35.59
74975;BME280;68459;50.836;19.138;2024-03-23T12:32:48;96954.47;;;23.82;34.26
74975;BME280;68459;50.836;19.138;2024-03-23T12:35:52;96942.47;;;22.25;35.58
74975;BME280;68459;50.836;19.138;2024-03-23T12:38:55;96950.38;;;20.98;37.11
74975;BME280;68459;50.836;19.138;2024-03-23T12:41:57;96926.16;;;20.50;38.35
74975;BME280;68459;50.836;19.138;2024-03-23T12:45:00;96910.31;;;21.68;38.13
74975;BME280;68459;50.836;19.138;2024-03-23T12:48:01;96889.34;;;25.19;35.32
74975;BME280;68459;50.836;19.138;2024-03-23T12:51:06;96900.31;;;28.48;31.85
74975;BME280;68459;50.836;19.138;2024-03-23T12:54:08;96883.66;;;29.82;29.33
74975;BME280;68459;50.836;19.138;2024-03-23T12:57:10;96871.50;;;27.15;31.00
74975;BME280;68459;50.836;19.138;2024-03-23T13:00:13;96879.50;;;24.67;32.47
74975;BME280;68459;50.836;19.138;2024-03-23T13:03:17;96868.53;;;22.56;34.92
74975;BME280;68459;50.836;19.138;2024-03-23T13:06:20;96872.34;;;21.16;36.02
74975;BME280;68459;50.836;19.138;2024-03-23T13:09:22;96862.03;;;20.13;37.17
74975;BME280;68459;50.836;19.138;2024-03-23T13:12:25;96863.50;;;19.46;37.99
74975;BME280;68459;50.836;19.138;2024-03-23T13:15:27;96857.78;;;18.96;38.46
74975;BME280;68459;50.836;19.138;2024-03-23T13:18:30;96864.84;;;18.63;39.01
74975;BME280;68459;50.836;19.138;2024-03-23T13:21:33;96869.75;;;18.35;39.13
74975;BME280;68459;50.836;19.138;2024-03-23T13:24:36;96875.56;;;18.11;39.35
74975;BME280;68459;50.836;19.138;2024-03-23T13:27:38;96879.19;;;17.89;39.96
74975;BME280;68459;50.836;19.138;2024-03-23T13:30:49;96893.88;;;17.71;40.14
74975;BME280;68459;50.836;19.138;2024-03-23T13:33:51;96953.91;;;17.57;41.00
74975;BME280;68459;50.836;19.138;2024-03-23T13:36:56;97071.38;;;17.33;43.97
74975;BME280;68459;50.836;19.138;2024-03-23T13:40:00;97074.53;;;16.12;48.46
74975;BME280;68459;50.836;19.138;2024-03-23T13:43:04;97074.38;;;14.91;52.52
74975;BME280;68459;50.836;19.138;2024-03-23T13:46:06;97094.41;;;14.13;53.63
74975;BME280;68459;50.836;19.138;2024-03-23T13:49:18;97121.41;;;13.55;60.84
74975;BME280;68459;50.836;19.138;2024-03-23T13:52:27;97106.50;;;13.04;61.66
74975;BME280;68459;50.836;19.138;2024-03-23T13:55:32;97128.00;;;12.60;62.87
74975;BME280;68459;50.836;19.138;2024-03-23T13:58:33;97141.84;;;12.23;64.44
74975;BME280;68459;50.836;19.138;2024-03-23T14:01:36;97158.03;;;11.87;65.34
74975;BME280;68459;50.836;19.138;2024-03-23T14:04:39;97125.84;;;11.55;67.04
74975;BME280;68459;50.836;19.138;2024-03-23T14:07:42;97136.56;;;11.35;69.45
74975;BME280;68459;50.836;19.138;2024-03-23T14:10:45;97133.81;;;11.20;68.62
74975;BME280;68459;50.836;19.138;2024-03-23T14:13:46;97120.84;;;11.12;69.15
74975;BME280;68459;50.836;19.138;2024-03-23T14:16:49;97133.25;;;11.07;68.67
74975;BME280;68459;50.836;19.138;2024-03-23T14:19:52;97147.53;;;11.03;67.51
74975;BME280;68459;50.836;19.138;2024-03-23T14:22:55;97143.22;;;11.02;68.22
74975;BME280;68459;50.836;19.138;2024-03-23T14:25:58;97156.44;;;11.03;68.75
74975;BME280;68459;50.836;19.138;2024-03-23T14:29:00;97124.88;;;11.04;69.37
74975;BME280;68459;50.836;19.138;2024-03-23T14:32:04;97098.97;;;11.03;70.08
74975;BME280;68459;50.836;19.138;2024-03-23T14:35:07;97095.47;;;11.02;70.02
74975;BME280;68459;50.836;19.138;2024-03-23T14:38:12;97120.00;;;11.01;70.25
74975;BME280;68459;50.836;19.138;2024-03-23T14:41:14;97078.72;;;11.00;69.59
74975;BME280;68459;50.836;19.138;2024-03-23T14:44:17;97103.56;;;11.02;70.28
74975;BME280;68459;50.836;19.138;2024-03-23T14:47:19;97093.03;;;11.06;70.24
74975;BME280;68459;50.836;19.138;2024-03-23T14:50:22;97081.19;;;11.12;69.49
74975;BME280;68459;50.836;19.138;2024-03-23T14:53:27;97046.66;;;11.19;68.75
74975;BME280;68459;50.836;19.138;2024-03-23T14:56:31;97033.72;;;11.26;68.71
74975;BME280;68459;50.836;19.138;2024-03-23T14:59:33;97058.56;;;11.33;69.05
74975;BME280;68459;50.836;19.138;2024-03-23T15:02:36;97061.81;;;11.40;69.41
74975;BME280;68459;50.836;19.138;2024-03-23T15:05:38;97072.88;;;11.49;69.21
74975;BME280;68459;50.836;19.138;2024-03-23T15:08:42;97073.16;;;11.63;68.61
74975;BME280;68459;50.836;19.138;2024-03-23T15:11:45;97069.44;;;11.79;68.98
74975;BME280;68459;50.836;19.138;2024-03-23T15:14:47;97076.34;;;12.56;68.60
74975;BME280;68459;50.836;19.138;2024-03-23T15:17:49;97049.38;;;13.49;66.14
74975;BME280;68459;50.836;19.138;2024-03-23T15:20:52;97075.75;;;13.73;65.46
74975;BME280;68459;50.836;19.138;2024-03-23T15:23:57;97088.38;;;13.53;65.00
74975;BME280;68459;50.836;19.138;2024-03-23T15:27:00;97095.09;;;13.17;65.71
74975;BME280;68459;50.836;19.138;2024-03-23T15:30:02;97093.84;;;12.79;66.05
74975;BME280;68459;50.836;19.138;2024-03-23T15:33:05;97089.78;;;12.81;66.62
74975;BME280;68459;50.836;19.138;2024-03-23T15:36:07;97105.47;;;12.79;67.16
74975;BME280;68459;50.836;19.138;2024-03-23T15:39:11;97093.91;;;12.59;67.38
74975;BME280;68459;50.836;19.138;2024-03-23T15:42:14;97108.31;;;12.29;68.26
74975;BME280;68459;50.836;19.138;2024-03-23T15:45:17;97107.00;;;11.96;68.30
74975;BME280;68459;50.836;19.138;2024-03-23T15:48:19;97106.13;;;11.75;68.54
74975;BME280;68459;50.836;19.138;2024-03-23T15:51:22;97128.00;;;11.58;68.45
74975;BME280;68459;50.836;19.138;2024-03-23T15:54:26;97110.41;;;11.40;68.60
74975;BME280;68459;50.836;19.138;2024-03-23T15:57:27;97140.59;;;11.32;68.74
74975;BME280;68459;50.836;19.138;2024-03-23T16:00:30;97110.34;;;11.20;68.45
74975;BME280;68459;50.836;19.138;2024-03-23T16:03:32;97131.38;;;11.13;68.33
74975;BME280;68459;50.836;19.138;2024-03-23T16:06:35;97156.72;;;11.07;68.44
74975;BME280;68459;50.836;19.138;2024-03-23T16:09:38;97158.84;;;11.00;68.17
74975;BME280;68459;50.836;19.138;2024-03-23T16:12:40;97169.00;;;10.83;68.50
74975;BME280;68459;50.836;19.138;2024-03-23T16:15:42;97221.50;;;10.65;68.75
74975;BME280;68459;50.836;19.138;2024-03-23T16:18:45;97243.47;;;10.47;68.79
74975;BME280;68459;50.836;19.138;2024-03-23T16:21:48;97249.47;;;10.27;69.53
74975;BME280;68459;50.836;19.138;2024-03-23T16:24:51;97280.53;;;10.08;68.86
74975;BME280;68459;50.836;19.138;2024-03-23T16:27:54;97299.16;;;9.87;68.95
74975;BME280;68459;50.836;19.138;2024-03-23T16:30:57;97319.78;;;9.55;68.78
74975;BME280;68459;50.836;19.138;2024-03-23T16:34:00;97327.00;;;9.33;69.08
74975;BME280;68459;50.836;19.138;2024-03-23T16:37:03;97391.75;;;9.09;68.93
74975;BME280;68459;50.836;19.138;2024-03-23T16:40:07;97353.47;;;8.69;68.72
74975;BME280;68459;50.836;19.138;2024-03-23T16:43:11;97356.16;;;8.52;69.44
74975;BME280;68459;50.836;19.138;2024-03-23T16:46:14;97348.63;;;8.37;69.34
74975;BME280;68459;50.836;19.138;2024-03-23T16:49:16;97368.53;;;8.25;69.01
74975;BME280;68459;50.836;19.138;2024-03-23T16:52:20;97384.94;;;8.11;69.08
74975;BME280;68459;50.836;19.138;2024-03-23T16:55:23;97384.84;;;7.95;68.98
74975;BME280;68459;50.836;19.138;2024-03-23T16:58:26;97395.28;;;7.79;68.59